createdAt,value
2023-03-27T00:01:44.530Z,22.63
2023-03-27T00:04:09.417Z,24.52
2023-03-27T00:06:35.756Z,24.77
2023-03-27T00:09:00.427Z,23.95
2023-03-27T00:11:26.245Z,23.17
2023-03-27T00:13:54.643Z,21.27
2023-03-27T00:16:21.935Z,26.92
2023-03-27T00:18:46.959Z,22.48
2023-03-27T00:21:14.141Z,26.55
2023-03-27T00:23:38.755Z,22.35
2023-03-27T00:26:03.331Z,21.88
2023-03-27T00:28:30.361Z,20.60
2023-03-27T00:30:58.588Z,21.77
2023-03-27T00:33:24.210Z,21.38
2023-03-27T00:35:50.333Z,22.38
2023-03-27T00:38:16.498Z,20.20
2023-03-27T00:40:41.454Z,22.92
2023-03-27T00:43:20.946Z,24.30
2023-03-27T00:45:47.289Z,19.67
2023-03-27T00:48:13.585Z,19.23
2023-03-27T00:50:41.598Z,18.98
2023-03-27T00:53:11.440Z,19.58
2023-03-27T00:55:39.532Z,21.27
2023-03-27T00:58:10.071Z,26.90
2023-03-27T01:00:36.209Z,23.90
2023-03-27T01:03:02.619Z,22.45
2023-03-27T01:05:29.219Z,22.10
2023-03-27T01:08:00.672Z,22.15
2023-03-27T01:10:37.204Z,22.90
2023-03-27T01:13:11.165Z,20.20
2023-03-27T01:15:41.164Z,21.25
2023-03-27T01:21:13.910Z,15.60
2023-03-27T01:24:05.343Z,17.13
2023-03-27T01:26:58.332Z,16.50
2023-03-27T01:29:39.848Z,23.63
2023-03-27T01:32:29.435Z,27.08
2023-03-27T01:35:22.061Z,21.63
2023-03-27T01:38:32.090Z,22.50
2023-03-27T01:43:31.870Z,23.23
2023-03-27T01:46:01.104Z,22.55
2023-03-27T01:48:33.184Z,22.13
2023-03-27T01:51:03.202Z,19.23
2023-03-27T01:55:59.544Z,19.75
2023-03-27T02:00:54.822Z,19.45
2023-03-27T02:03:23.983Z,26.17
2023-03-27T02:05:53.484Z,22.88
2023-03-27T02:08:22.473Z,23.48
2023-03-27T02:10:57.023Z,24.65
2023-03-27T02:13:30.667Z,19.13
2023-03-27T02:15:58.507Z,20.85
2023-03-27T02:18:30.436Z,23.55
2023-03-27T02:20:56.364Z,21.10
2023-03-27T02:23:23.187Z,18.42
2023-03-27T02:25:48.350Z,15.13
2023-03-27T02:28:40.983Z,20.35
2023-03-27T02:31:33.194Z,18.90
2023-03-27T02:34:23.457Z,20.75
2023-03-27T02:36:55.623Z,22.70
2023-03-27T02:39:38.437Z,19.70
2023-03-27T02:42:09.655Z,18.92
2023-03-27T02:44:46.457Z,26.80
2023-03-27T02:47:19.751Z,22.55
2023-03-27T02:49:48.423Z,23.77
2023-03-27T02:52:16.534Z,26.90
2023-03-27T02:54:47.487Z,22.17
2023-03-27T02:57:17.106Z,23.83
2023-03-27T03:00:22.603Z,25.67
2023-03-27T03:02:55.877Z,29.27
2023-03-27T03:05:23.621Z,34.03
2023-03-27T03:07:49.041Z,31.98
2023-03-27T03:10:15.172Z,32.20
2023-03-27T03:12:40.063Z,23.08
2023-03-27T03:15:04.965Z,26.40
2023-03-27T03:17:30.062Z,24.88
2023-03-27T03:19:56.556Z,21.70
2023-03-27T03:22:23.457Z,27.55
2023-03-27T03:24:51.266Z,27.70
2023-03-27T03:27:21.224Z,24.98
2023-03-27T03:30:16.655Z,23.65
2023-03-27T03:32:48.724Z,22.48
2023-03-27T03:35:15.126Z,22.55
2023-03-27T03:37:39.832Z,24.77
2023-03-27T03:40:12.129Z,20.20
2023-03-27T03:42:46.836Z,21.45
2023-03-27T03:45:12.642Z,18.35
2023-03-27T03:47:37.440Z,21.17
2023-03-27T03:50:04.295Z,25.40
2023-03-27T03:52:31.804Z,23.95
2023-03-27T03:54:56.583Z,21.23
2023-03-27T03:57:21.717Z,23.30
2023-03-27T04:00:01.174Z,17.75
2023-03-27T04:02:52.415Z,21.88
2023-03-27T04:05:17.492Z,22.98
2023-03-27T04:07:45.814Z,24.45
2023-03-27T04:10:31.453Z,23.17
2023-03-27T04:12:59.807Z,17.08
2023-03-27T04:15:30.892Z,18.23
2023-03-27T04:18:15.358Z,21.13
2023-03-27T04:20:41.301Z,18.13
2023-03-27T04:23:10.903Z,16.13
2023-03-27T04:25:38.299Z,15.18
2023-03-27T04:28:03.692Z,17.83
2023-03-27T04:30:37.098Z,15.32
2023-03-27T04:33:18.857Z,21.70
2023-03-27T04:36:05.387Z,31.17
2023-03-27T04:38:53.394Z,16.30
2023-03-27T04:41:18.866Z,17.42
2023-03-27T04:43:43.887Z,16.83
2023-03-27T04:46:09.113Z,15.38
2023-03-27T04:48:35.219Z,21.98
2023-03-27T04:51:09.643Z,19.42
2023-03-27T04:53:36.495Z,19.42
2023-03-27T04:56:02.578Z,24.48
2023-03-27T04:58:30.514Z,16.27
2023-03-27T05:00:58.226Z,19.52
2023-03-27T05:03:26.167Z,24.73
2023-03-27T05:06:06.358Z,17.33
2023-03-27T05:08:34.745Z,18.02
2023-03-27T05:11:01.971Z,15.93
2023-03-27T05:13:35.840Z,21.38
2023-03-27T05:16:02.188Z,23.52
2023-03-27T05:18:38.586Z,21.73
2023-03-27T05:21:07.556Z,21.33
2023-03-27T05:23:33.020Z,20.45
2023-03-27T05:26:01.001Z,17.77
2023-03-27T05:28:43.482Z,25.75
2023-03-27T05:31:13.012Z,20.38
2023-03-27T05:33:53.613Z,18.30
2023-03-27T05:36:19.233Z,18.98
2023-03-27T05:38:44.872Z,17.73
2023-03-27T05:41:12.908Z,21.65
2023-03-27T05:43:45.905Z,17.67
2023-03-27T05:46:20.464Z,14.75
2023-03-27T05:49:00.785Z,17.20
2023-03-27T05:51:27.826Z,14.82
2023-03-27T05:53:52.770Z,14.38
2023-03-27T05:56:20.634Z,17.85
2023-03-27T05:58:56.478Z,17.67
2023-03-27T06:01:23.707Z,18.33
2023-03-27T06:03:56.165Z,17.67
2023-03-27T06:06:41.830Z,16.92
2023-03-27T06:09:07.880Z,17.50
2023-03-27T06:11:34.253Z,21.13
2023-03-27T06:14:00.248Z,17.33
2023-03-27T06:16:40.348Z,14.13
2023-03-27T06:19:37.341Z,16.67
2023-03-27T06:22:02.456Z,16.88
2023-03-27T06:24:27.843Z,14.95
2023-03-27T06:26:53.151Z,12.98
2023-03-27T06:29:20.266Z,16.40
2023-03-27T06:31:48.102Z,19.42
2023-03-27T06:34:27.641Z,16.88
2023-03-27T06:37:02.904Z,20.65
2023-03-27T06:39:33.496Z,13.93
2023-03-27T06:41:58.293Z,16.27
2023-03-27T06:44:30.584Z,20.17
2023-03-27T06:47:12.942Z,18.30
2023-03-27T06:50:01.062Z,18.38
2023-03-27T06:52:27.888Z,14.35
2023-03-27T06:55:03.637Z,17.58
2023-03-27T06:57:29.264Z,12.93
2023-03-27T06:59:58.846Z,16.88
2023-03-27T07:02:42.697Z,12.40
2023-03-27T07:05:27.046Z,13.63
2023-03-27T07:07:52.412Z,15.18
2023-03-27T07:10:18.157Z,12.90
2023-03-27T07:12:46.871Z,14.40
2023-03-27T07:15:15.541Z,15.88
2023-03-27T07:17:48.585Z,15.48
2023-03-27T07:20:16.615Z,14.63
2023-03-27T07:22:43.845Z,13.00
2023-03-27T07:25:19.562Z,15.55
2023-03-27T07:27:44.492Z,15.10
2023-03-27T07:30:12.285Z,14.65
2023-03-27T07:32:40.153Z,16.07
2023-03-27T07:35:06.619Z,17.58
2023-03-27T07:37:40.852Z,18.55
2023-03-27T07:40:41.011Z,15.23
2023-03-27T07:43:29.067Z,15.23
2023-03-27T07:45:54.801Z,19.42
2023-03-27T07:48:21.600Z,19.88
2023-03-27T07:50:46.469Z,16.15
2023-03-27T07:53:32.699Z,16.42
2023-03-27T07:56:02.946Z,18.15
2023-03-27T07:58:29.629Z,15.20
2023-03-27T08:00:55.021Z,14.93
2023-03-27T08:03:26.179Z,13.60
2023-03-27T08:08:24.444Z,12.88
2023-03-27T08:10:57.208Z,16.42
2023-03-27T08:13:24.574Z,18.30
2023-03-27T08:15:49.123Z,14.43
2023-03-27T08:18:20.013Z,15.38
2023-03-27T08:20:47.904Z,16.55
2023-03-27T08:23:12.566Z,17.73
2023-03-27T08:26:07.527Z,15.27
2023-03-27T08:28:40.401Z,9.85
2023-03-27T08:31:11.521Z,14.18
2023-03-27T08:33:36.618Z,19.80
2023-03-27T08:36:04.524Z,16.63
2023-03-27T08:38:33.287Z,12.93
2023-03-27T08:41:31.105Z,15.60
2023-03-27T08:44:12.145Z,14.20
2023-03-27T08:46:43.274Z,13.45
2023-03-27T08:49:17.393Z,14.40
2023-03-27T08:52:07.292Z,12.38
2023-03-27T08:54:36.693Z,15.23
2023-03-27T08:57:03.979Z,13.77
2023-03-27T08:59:31.547Z,11.07
2023-03-27T09:02:07.894Z,14.40
2023-03-27T09:04:42.004Z,14.68
2023-03-27T09:07:12.891Z,11.65
2023-03-27T09:10:00.168Z,12.82
2023-03-27T09:12:48.488Z,11.73
2023-03-27T09:15:17.815Z,10.63
2023-03-27T09:17:51.640Z,12.50
2023-03-27T09:20:20.923Z,11.68
2023-03-27T09:22:57.098Z,10.43
2023-03-27T09:25:39.979Z,14.23
2023-03-27T09:28:23.679Z,18.48
2023-03-27T09:30:55.635Z,13.48
2023-03-27T09:33:28.775Z,13.82
2023-03-27T09:35:54.032Z,14.77
2023-03-27T09:38:29.429Z,12.05
2023-03-27T09:40:58.590Z,8.50
2023-03-27T09:43:44.700Z,15.98
2023-03-27T09:46:13.298Z,10.55
2023-03-27T09:48:43.843Z,13.95
2023-03-27T09:51:40.526Z,6.40
2023-03-27T09:54:14.534Z,10.90
2023-03-27T09:56:42.810Z,13.63
2023-03-27T09:59:19.898Z,9.77
2023-03-27T10:01:48.717Z,12.88
2023-03-27T10:04:17.970Z,11.88
2023-03-27T10:06:48.533Z,8.48
2023-03-27T10:09:35.148Z,13.82
2023-03-27T10:12:12.269Z,15.40
2023-03-27T10:14:40.480Z,11.75
2023-03-27T10:17:22.657Z,12.02
2023-03-27T10:19:55.284Z,18.70
2023-03-27T10:22:30.369Z,10.45
2023-03-27T10:25:00.884Z,13.70
2023-03-27T10:27:50.660Z,12.05
2023-03-27T10:30:35.500Z,11.02
2023-03-27T10:33:15.025Z,15.45
2023-03-27T10:35:46.630Z,16.23
2023-03-27T10:38:19.670Z,14.10
2023-03-27T10:40:52.586Z,13.50
2023-03-27T10:43:33.708Z,13.80
2023-03-27T10:46:05.935Z,15.23
2023-03-27T10:48:44.261Z,14.27
2023-03-27T10:51:43.008Z,12.43
2023-03-27T10:54:19.096Z,12.80
2023-03-27T10:56:58.597Z,11.60
2023-03-27T10:59:41.152Z,13.70
2023-03-27T11:02:18.408Z,13.57
2023-03-27T11:04:52.523Z,14.38
2023-03-27T11:07:23.462Z,15.98
2023-03-27T11:10:00.907Z,12.05
2023-03-27T11:12:35.578Z,15.20
2023-03-27T11:15:07.623Z,12.43
2023-03-27T11:17:38.268Z,10.40
2023-03-27T11:20:26.329Z,14.38
2023-03-27T11:23:16.872Z,8.77
2023-03-27T11:26:06.777Z,14.98
2023-03-27T11:28:42.969Z,14.23
2023-03-27T11:31:14.655Z,11.77
2023-03-27T11:33:48.006Z,13.27
2023-03-27T11:36:26.241Z,16.10
2023-03-27T11:39:14.092Z,11.50
2023-03-27T11:41:43.937Z,14.20
2023-03-27T11:44:11.969Z,12.75
2023-03-27T11:47:19.752Z,11.05
2023-03-27T11:50:02.599Z,11.88
2023-03-27T11:52:46.929Z,11.30
2023-03-27T11:55:26.304Z,13.32
2023-03-27T11:58:04.700Z,13.18
2023-03-27T12:00:47.994Z,11.07
2023-03-27T12:03:46.538Z,10.88
2023-03-27T12:06:25.361Z,13.52
2023-03-27T12:09:19.618Z,9.95
2023-03-27T12:12:24.563Z,9.70
2023-03-27T12:15:00.066Z,12.77
2023-03-27T12:17:51.449Z,10.52
2023-03-27T12:20:54.030Z,11.30
2023-03-27T12:23:44.384Z,18.30
2023-03-27T12:26:51.380Z,11.93
2023-03-27T12:29:59.007Z,11.63
2023-03-27T12:32:44.990Z,11.25
2023-03-27T12:35:13.664Z,15.70
2023-03-27T12:37:49.112Z,12.70
2023-03-27T12:40:29.716Z,15.43
2023-03-27T12:43:24.530Z,10.77
2023-03-27T12:46:17.219Z,11.18
2023-03-27T12:51:19.939Z,9.70
2023-03-27T12:53:56.068Z,7.65
2023-03-27T12:56:33.150Z,14.35
2023-03-27T12:58:58.434Z,11.23
2023-03-27T13:01:52.191Z,20.35
2023-03-27T13:04:40.155Z,13.15
2023-03-27T13:07:12.289Z,10.13
2023-03-27T13:10:21.984Z,9.02
2023-03-27T13:13:04.659Z,10.98
2023-03-27T13:15:59.173Z,13.38
2023-03-27T13:18:58.977Z,9.30
2023-03-27T13:21:37.800Z,12.75
2023-03-27T13:24:28.753Z,10.32
2023-03-27T13:27:13.274Z,8.68
2023-03-27T13:29:38.250Z,10.30
2023-03-27T13:32:35.101Z,12.65
2023-03-27T13:35:22.410Z,9.88
2023-03-27T13:37:59.551Z,7.10
2023-03-27T13:40:38.974Z,10.93
2023-03-27T13:43:15.939Z,7.45
2023-03-27T13:45:47.246Z,10.00
2023-03-27T13:49:11.943Z,11.02
2023-03-27T13:52:40.545Z,12.30
2023-03-27T13:55:43.509Z,10.13
2023-03-27T13:58:50.881Z,15.45
2023-03-27T14:01:30.615Z,16.77
2023-03-27T14:04:29.819Z,14.02
2023-03-27T14:07:38.325Z,26.38
2023-03-27T14:10:28.159Z,10.52
2023-03-27T14:13:18.636Z,10.82
2023-03-27T14:16:19.030Z,9.70
2023-03-27T14:19:15.915Z,10.57
2023-03-27T14:21:53.935Z,9.48
2023-03-27T14:24:30.644Z,11.07
2023-03-27T14:27:13.831Z,10.60
2023-03-27T14:29:40.346Z,10.85
2023-03-27T14:32:06.760Z,7.68
2023-03-27T14:34:47.356Z,10.23
2023-03-27T14:37:32.531Z,7.00
2023-03-27T14:40:18.920Z,8.10
2023-03-27T14:42:49.565Z,12.15
2023-03-27T14:45:24.353Z,11.48
2023-03-27T14:47:54.863Z,6.10
2023-03-27T14:50:20.703Z,6.50
2023-03-27T14:52:46.569Z,9.00
2023-03-27T14:55:30.335Z,8.20
2023-03-27T14:58:18.749Z,7.45
2023-03-27T15:03:20.916Z,9.73
2023-03-27T15:05:58.918Z,9.05
2023-03-27T15:08:32.380Z,7.40
2023-03-27T15:11:12.485Z,11.85
2023-03-27T15:13:48.185Z,6.65
2023-03-27T15:16:26.841Z,8.07
2023-03-27T15:19:04.981Z,9.55
2023-03-27T15:21:39.207Z,10.45
2023-03-27T15:24:10.538Z,9.25
2023-03-27T15:26:37.417Z,9.15
2023-03-27T15:29:08.284Z,13.10
2023-03-27T15:31:36.572Z,11.95
2023-03-27T15:34:06.358Z,12.32
2023-03-27T15:36:34.748Z,14.52
2023-03-27T15:39:02.702Z,13.95
2023-03-27T15:41:44.815Z,16.73
2023-03-27T15:44:15.814Z,11.05
2023-03-27T15:46:54.134Z,13.57
2023-03-27T15:49:31.590Z,12.75
2023-03-27T15:51:57.087Z,14.00
2023-03-27T15:54:35.506Z,13.05
2023-03-27T15:57:10.751Z,12.77
2023-03-27T15:59:52.413Z,10.35
2023-03-27T16:02:20.092Z,13.93
2023-03-27T16:04:51.233Z,15.63
2023-03-27T16:07:20.948Z,12.85
2023-03-27T16:09:56.114Z,17.55
2023-03-27T16:12:25.853Z,12.77
2023-03-27T16:17:25.242Z,15.75
2023-03-27T16:19:55.589Z,19.50
2023-03-27T16:22:30.684Z,14.05
2023-03-27T16:24:56.113Z,16.90
2023-03-27T16:27:23.864Z,15.63
2023-03-27T16:29:48.678Z,18.17
2023-03-27T16:32:14.187Z,15.00
2023-03-27T16:34:41.915Z,14.23
2023-03-27T16:37:06.668Z,18.42
2023-03-27T16:39:31.413Z,18.75
2023-03-27T16:41:56.551Z,16.33
2023-03-27T16:44:21.229Z,15.82
2023-03-27T16:46:46.508Z,17.60
2023-03-27T16:49:13.749Z,18.23
2023-03-27T16:51:39.661Z,22.00
2023-03-27T16:54:04.323Z,19.38
2023-03-27T16:56:29.065Z,22.55
2023-03-27T16:58:53.929Z,24.77
2023-03-27T17:01:18.628Z,24.30
2023-03-27T17:03:43.536Z,23.60
2023-03-27T17:06:09.885Z,23.20
2023-03-27T17:08:37.131Z,21.92
2023-03-27T17:11:04.113Z,27.75
2023-03-27T17:13:28.804Z,29.45
2023-03-27T17:15:53.719Z,27.52
2023-03-27T17:18:18.634Z,29.92
2023-03-27T17:20:43.396Z,27.23
2023-03-27T17:23:08.027Z,27.73
2023-03-27T17:25:34.094Z,26.13
2023-03-27T17:27:58.882Z,26.15
2023-03-27T17:30:36.815Z,34.28
2023-03-27T17:33:05.184Z,31.13
2023-03-27T17:35:30.767Z,37.60
2023-03-27T17:37:55.878Z,38.38
2023-03-27T17:40:21.110Z,34.28
2023-03-27T17:42:47.470Z,32.80
2023-03-27T17:45:16.980Z,38.47
2023-03-27T17:47:41.808Z,36.85
2023-03-27T17:50:09.330Z,31.70
2023-03-27T17:52:37.461Z,31.98
2023-03-27T17:55:05.222Z,35.03
2023-03-27T17:57:30.925Z,32.40
2023-03-27T17:59:57.321Z,33.13
2023-03-27T18:02:22.968Z,35.40
2023-03-27T18:04:52.249Z,32.75
2023-03-27T18:07:17.018Z,29.60
2023-03-27T18:09:49.562Z,32.65
2023-03-27T18:12:18.256Z,29.42
2023-03-27T18:14:44.120Z,29.95
2023-03-27T18:17:12.442Z,37.38
2023-03-27T18:19:39.147Z,36.13
2023-03-27T18:22:04.086Z,36.88
2023-03-27T18:24:31.391Z,40.25
2023-03-27T18:26:56.365Z,41.88
2023-03-27T18:29:22.560Z,48.22
2023-03-27T18:31:47.477Z,43.33
2023-03-27T18:34:15.621Z,47.55
2023-03-27T18:36:40.618Z,50.35
2023-03-27T18:39:08.718Z,48.88
2023-03-27T18:41:33.655Z,41.80
2023-03-27T18:43:58.289Z,42.50
2023-03-27T18:46:23.620Z,41.28
2023-03-27T18:48:50.033Z,45.70
2023-03-27T18:51:17.759Z,45.10
2023-03-27T18:53:42.496Z,42.10
2023-03-27T18:56:08.641Z,43.10
2023-03-27T18:58:33.331Z,39.30
2023-03-27T19:00:58.169Z,44.95
2023-03-27T19:03:24.797Z,41.20
2023-03-27T19:05:49.816Z,40.20
2023-03-27T19:08:16.631Z,37.00
2023-03-27T19:10:41.486Z,39.55
2023-03-27T19:13:16.105Z,35.60
2023-03-27T19:15:59.250Z,33.10
2023-03-27T19:18:44.343Z,35.50
2023-03-27T19:21:23.583Z,32.33
2023-03-27T19:24:01.782Z,32.38
2023-03-27T19:26:36.322Z,29.75
2023-03-27T19:29:01.131Z,29.85
2023-03-27T19:31:27.406Z,29.67
2023-03-27T19:33:51.975Z,32.92
2023-03-27T19:36:17.731Z,27.48
2023-03-27T19:38:44.624Z,32.92
2023-03-27T19:41:11.742Z,32.58
2023-03-27T19:43:36.553Z,33.08
2023-03-27T19:46:15.056Z,34.97
2023-03-27T19:48:41.076Z,31.92
2023-03-27T19:51:12.532Z,35.38
2023-03-27T19:53:46.916Z,34.60
2023-03-27T19:56:13.504Z,29.23
2023-03-27T19:58:38.171Z,29.95
2023-03-27T20:01:04.697Z,29.15
2023-03-27T20:03:29.549Z,30.15
2023-03-27T20:05:56.063Z,34.55
2023-03-27T20:08:33.961Z,27.73
2023-03-27T20:10:59.280Z,32.90
2023-03-27T20:13:25.398Z,29.50
2023-03-27T20:15:51.456Z,29.88
2023-03-27T20:18:16.602Z,27.48
2023-03-27T20:20:41.796Z,25.67
2023-03-27T20:23:06.768Z,26.90
2023-03-27T20:25:33.887Z,25.88
2023-03-27T20:28:02.136Z,23.80
2023-03-27T20:30:28.965Z,24.50
2023-03-27T20:32:56.870Z,21.30
2023-03-27T20:35:24.811Z,25.05
2023-03-27T20:37:49.722Z,22.35
2023-03-27T20:40:18.883Z,19.90
2023-03-27T20:42:47.165Z,24.55
2023-03-27T20:45:16.459Z,21.83
2023-03-27T20:47:43.120Z,26.02
2023-03-27T20:50:08.735Z,22.55
2023-03-27T20:52:34.013Z,21.60
2023-03-27T20:54:59.216Z,24.40
2023-03-27T20:57:24.260Z,21.50
2023-03-27T20:59:49.592Z,24.05
2023-03-27T21:02:18.562Z,22.60
2023-03-27T21:04:44.662Z,21.30
2023-03-27T21:07:09.736Z,18.90
2023-03-27T21:09:34.267Z,26.45
2023-03-27T21:11:58.887Z,22.52
2023-03-27T21:14:26.444Z,21.48
2023-03-27T21:16:51.580Z,22.85
2023-03-27T21:19:18.361Z,22.70
2023-03-27T21:21:44.712Z,21.52
2023-03-27T21:24:09.414Z,25.63
2023-03-27T21:26:34.757Z,23.83
2023-03-27T21:28:59.356Z,23.50
2023-03-27T21:31:23.927Z,23.20
2023-03-27T21:33:48.652Z,23.92
2023-03-27T21:36:13.687Z,25.80
2023-03-27T21:38:39.734Z,22.77
2023-03-27T21:41:05.054Z,21.88
2023-03-27T21:43:30.003Z,20.85
2023-03-27T21:45:54.724Z,23.67
2023-03-27T21:48:20.106Z,24.73
2023-03-27T21:50:45.031Z,21.67
2023-03-27T21:53:10.320Z,19.75
2023-03-27T21:55:37.548Z,21.17
2023-03-27T21:58:02.097Z,19.63
2023-03-27T22:00:26.861Z,16.63
2023-03-27T22:02:51.570Z,16.10
2023-03-27T22:05:16.396Z,16.30
2023-03-27T22:07:41.201Z,17.15
2023-03-27T22:10:06.544Z,13.82
2023-03-27T22:12:32.485Z,11.43
2023-03-27T22:14:56.949Z,11.32
2023-03-27T22:17:21.773Z,10.88
2023-03-27T22:19:46.257Z,17.08
2023-03-27T22:22:10.834Z,10.73
2023-03-27T22:24:35.704Z,11.05
2023-03-27T22:27:00.107Z,10.38
2023-03-27T22:29:26.031Z,11.38
2023-03-27T22:31:50.625Z,9.85
2023-03-27T22:34:15.125Z,13.27
2023-03-27T22:36:39.548Z,10.35
2023-03-27T22:39:04.357Z,14.00
2023-03-27T22:41:29.234Z,10.23
2023-03-27T22:43:53.897Z,9.15
2023-03-27T22:46:25.993Z,9.80
2023-03-27T22:48:56.586Z,7.72
2023-03-27T22:51:21.293Z,9.88
2023-03-27T22:53:45.817Z,8.55
2023-03-27T22:56:11.009Z,9.57
2023-03-27T22:58:37.003Z,13.43
2023-03-27T23:01:01.947Z,6.65
2023-03-27T23:03:29.662Z,10.23
2023-03-27T23:05:54.856Z,7.60
2023-03-27T23:08:21.084Z,6.72
2023-03-27T23:10:46.099Z,7.85
2023-03-27T23:13:10.914Z,6.53
2023-03-27T23:15:35.522Z,5.95
2023-03-27T23:17:59.967Z,4.72
2023-03-27T23:20:26.763Z,6.40
2023-03-27T23:22:51.326Z,6.50
2023-03-27T23:25:16.945Z,7.07
2023-03-27T23:27:41.452Z,5.93
2023-03-27T23:30:07.062Z,4.35
2023-03-27T23:32:33.585Z,3.90
2023-03-27T23:34:58.292Z,5.32
2023-03-27T23:37:24.121Z,5.72
2023-03-27T23:39:49.168Z,7.00
2023-03-27T23:42:13.624Z,4.75
2023-03-27T23:44:38.150Z,6.15
2023-03-27T23:47:02.566Z,4.45
2023-03-27T23:49:26.999Z,5.50
2023-03-27T23:51:51.369Z,5.38
2023-03-27T23:54:17.215Z,3.50
2023-03-27T23:56:41.708Z,4.78
2023-03-27T23:59:06.410Z,5.68
